createdAt,value
2022-12-08T00:01:34.134Z,22.30
2022-12-08T00:04:04.078Z,22.00
2022-12-08T00:06:56.006Z,18.80
2022-12-08T00:09:24.026Z,18.10
2022-12-08T00:12:02.804Z,18.10
2022-12-08T00:14:34.148Z,23.80
2022-12-08T00:17:03.533Z,20.50
2022-12-08T00:19:32.078Z,17.70
2022-12-08T00:22:00.047Z,18.60
2022-12-08T00:24:32.364Z,18.50
2022-12-08T00:27:00.875Z,19.20
2022-12-08T00:29:28.939Z,19.60
2022-12-08T00:31:57.006Z,17.30
2022-12-08T00:34:24.998Z,16.50
2022-12-08T00:36:52.962Z,17.80
2022-12-08T00:39:20.895Z,18.60
2022-12-08T00:42:07.290Z,20.90
2022-12-08T00:44:35.226Z,19.60
2022-12-08T00:47:03.062Z,17.20
2022-12-08T00:49:30.955Z,19.40
2022-12-08T00:51:58.880Z,29.40
2022-12-08T00:54:26.824Z,19.10
2022-12-08T00:56:54.711Z,21.00
2022-12-08T00:59:22.674Z,17.10
2022-12-08T01:01:50.808Z,16.00
2022-12-08T01:04:19.914Z,15.80
2022-12-08T01:06:48.588Z,17.90
2022-12-08T01:09:17.863Z,17.00
2022-12-08T01:11:46.271Z,16.60
2022-12-08T01:14:14.704Z,20.00
2022-12-08T01:16:43.760Z,16.90
2022-12-08T01:19:13.969Z,17.90
2022-12-08T01:21:43.000Z,17.80
2022-12-08T01:24:16.257Z,16.00
2022-12-08T01:26:44.767Z,17.10
2022-12-08T01:29:13.219Z,17.10
2022-12-08T01:31:41.201Z,18.60
2022-12-08T01:34:10.655Z,14.40
2022-12-08T01:36:39.230Z,14.80
2022-12-08T01:39:10.646Z,16.90
2022-12-08T01:41:39.567Z,15.70
2022-12-08T01:44:08.419Z,15.10
2022-12-08T01:46:39.623Z,15.40
2022-12-08T01:49:35.287Z,15.70
2022-12-08T01:52:14.797Z,16.50
2022-12-08T01:54:49.481Z,15.30
2022-12-08T01:57:24.077Z,17.10
2022-12-08T02:02:29.602Z,18.30
2022-12-08T02:04:57.670Z,21.90
2022-12-08T02:07:25.610Z,17.50
2022-12-08T02:09:54.105Z,20.70
2022-12-08T02:12:22.163Z,16.00
2022-12-08T02:14:50.479Z,17.40
2022-12-08T02:18:07.608Z,17.10
2022-12-08T02:20:35.477Z,16.20
2022-12-08T02:23:15.496Z,16.40
2022-12-08T02:26:07.859Z,16.40
2022-12-08T02:28:56.706Z,18.30
2022-12-08T02:31:43.129Z,18.60
2022-12-08T02:34:29.420Z,15.80
2022-12-08T02:37:19.203Z,15.00
2022-12-08T02:40:03.113Z,22.00
2022-12-08T02:43:03.869Z,20.50
2022-12-08T02:45:39.734Z,16.30
2022-12-08T02:48:09.203Z,16.00
2022-12-08T02:50:37.112Z,14.90
2022-12-08T02:55:55.538Z,16.20
2022-12-08T02:59:02.328Z,14.60
2022-12-08T03:01:49.040Z,15.90
2022-12-08T03:04:46.147Z,19.80
2022-12-08T03:07:28.178Z,16.50
2022-12-08T03:10:03.125Z,16.50
2022-12-08T03:12:42.209Z,16.60
2022-12-08T03:15:14.426Z,17.00
2022-12-08T03:17:47.376Z,17.10
2022-12-08T03:20:23.978Z,18.90
2022-12-08T03:22:55.675Z,16.70
2022-12-08T03:25:30.464Z,17.10
2022-12-08T03:27:59.756Z,17.70
2022-12-08T03:30:32.155Z,19.00
2022-12-08T03:33:27.583Z,17.30
2022-12-08T03:35:55.795Z,16.90
2022-12-08T03:38:23.768Z,21.00
2022-12-08T03:41:10.136Z,18.40
2022-12-08T03:43:38.064Z,22.80
2022-12-08T03:46:06.019Z,28.00
2022-12-08T03:48:33.900Z,18.40
2022-12-08T03:51:01.785Z,21.40
2022-12-08T03:53:29.694Z,29.50
2022-12-08T03:55:57.579Z,23.40
2022-12-08T03:58:25.587Z,23.90
2022-12-08T04:00:53.556Z,22.80
2022-12-08T04:03:21.495Z,22.00
2022-12-08T04:05:49.413Z,23.40
2022-12-08T04:08:17.322Z,23.40
2022-12-08T04:10:45.257Z,26.70
2022-12-08T04:13:13.138Z,25.20
2022-12-08T04:15:46.249Z,26.90
2022-12-08T04:18:14.982Z,26.50
2022-12-08T04:20:44.402Z,23.50
2022-12-08T04:23:12.975Z,27.40
2022-12-08T04:25:41.059Z,27.80
2022-12-08T04:28:09.049Z,23.90
2022-12-08T04:30:36.908Z,23.90
2022-12-08T04:33:04.857Z,27.10
2022-12-08T04:35:32.887Z,24.40
2022-12-08T04:38:00.835Z,29.70
2022-12-08T04:40:28.773Z,27.80
2022-12-08T04:42:56.657Z,31.20
2022-12-08T04:45:24.627Z,30.60
2022-12-08T04:47:52.543Z,33.70
2022-12-08T04:50:20.442Z,33.40
2022-12-08T04:52:48.396Z,29.20
2022-12-08T04:55:16.434Z,30.20
2022-12-08T04:57:44.361Z,32.20
2022-12-08T05:00:13.734Z,34.30
2022-12-08T05:02:41.813Z,32.10
2022-12-08T05:05:10.004Z,34.80
2022-12-08T05:07:38.069Z,38.90
2022-12-08T05:10:07.127Z,30.80
2022-12-08T05:12:35.220Z,28.70
2022-12-08T05:15:04.087Z,32.20
2022-12-08T05:17:31.940Z,30.70
2022-12-08T05:19:59.861Z,30.90
2022-12-08T05:22:27.909Z,36.30
2022-12-08T05:24:55.765Z,31.70
2022-12-08T05:27:23.930Z,31.00
2022-12-08T05:29:52.105Z,30.80
2022-12-08T05:32:20.193Z,31.20
2022-12-08T05:34:48.172Z,29.90
2022-12-08T05:37:16.110Z,33.80
2022-12-08T05:39:44.031Z,35.30
2022-12-08T05:42:11.923Z,33.20
2022-12-08T05:44:39.804Z,28.20
2022-12-08T05:47:07.740Z,27.40
2022-12-08T05:49:35.621Z,25.80
2022-12-08T05:52:03.781Z,23.70
2022-12-08T05:54:31.674Z,26.60
2022-12-08T05:57:00.091Z,29.60
2022-12-08T05:59:27.927Z,30.80
2022-12-08T06:01:55.854Z,32.40
2022-12-08T06:04:23.767Z,35.00
2022-12-08T06:06:51.664Z,36.20
2022-12-08T06:09:19.703Z,32.70
2022-12-08T06:11:47.737Z,36.10
2022-12-08T06:14:15.631Z,32.40
2022-12-08T06:16:43.651Z,32.10
2022-12-08T06:19:11.698Z,27.00
2022-12-08T06:21:39.653Z,23.60
2022-12-08T06:24:07.849Z,27.00
2022-12-08T06:26:36.224Z,26.00
2022-12-08T06:29:05.068Z,29.70
2022-12-08T06:31:33.123Z,25.30
2022-12-08T06:34:01.072Z,27.70
2022-12-08T06:36:29.367Z,24.90
2022-12-08T06:38:58.052Z,26.80
2022-12-08T06:41:26.852Z,24.70
2022-12-08T06:43:58.575Z,21.30
2022-12-08T06:46:26.703Z,20.80
2022-12-08T06:48:54.636Z,20.70
2022-12-08T06:51:23.545Z,20.90
2022-12-08T06:53:51.496Z,22.00
2022-12-08T06:56:20.535Z,22.00
2022-12-08T06:58:52.411Z,25.20
2022-12-08T07:01:21.243Z,25.70
2022-12-08T07:03:49.287Z,29.70
2022-12-08T07:06:20.941Z,31.90
2022-12-08T07:08:48.927Z,37.80
2022-12-08T07:11:21.532Z,45.60
2022-12-08T07:13:51.213Z,46.60
2022-12-08T07:16:19.381Z,53.60
2022-12-08T07:18:47.448Z,48.50
2022-12-08T07:21:16.635Z,42.80
2022-12-08T07:23:54.356Z,44.20
2022-12-08T07:26:26.854Z,50.90
2022-12-08T07:28:54.875Z,53.40
2022-12-08T07:31:25.216Z,55.50
2022-12-08T07:33:53.652Z,57.70
2022-12-08T07:36:22.489Z,35.40
2022-12-08T07:38:53.670Z,58.40
2022-12-08T07:41:27.291Z,51.10
2022-12-08T07:43:59.094Z,50.20
2022-12-08T07:46:27.234Z,47.80
2022-12-08T07:48:55.527Z,58.60
2022-12-08T07:51:25.077Z,65.60
2022-12-08T07:53:54.883Z,87.40
2022-12-08T07:56:23.870Z,99.90
2022-12-08T07:58:51.815Z,87.90
2022-12-08T08:01:27.971Z,75.40
2022-12-08T08:03:58.134Z,77.90
2022-12-08T08:06:26.054Z,60.20
2022-12-08T08:08:54.747Z,59.90
2022-12-08T08:11:23.118Z,62.80
2022-12-08T08:13:51.641Z,71.20
2022-12-08T08:16:20.477Z,59.20
2022-12-08T08:18:52.403Z,60.70
2022-12-08T08:21:44.405Z,71.00
2022-12-08T08:24:09.568Z,52.10
2022-12-08T08:26:38.013Z,47.30
2022-12-08T08:29:06.020Z,39.30
2022-12-08T08:31:34.000Z,35.90
2022-12-08T08:34:06.356Z,35.30
2022-12-08T08:36:34.823Z,35.60
2022-12-08T08:39:04.137Z,33.00
2022-12-08T08:41:32.128Z,35.60
2022-12-08T08:44:00.092Z,34.00
2022-12-08T08:46:28.078Z,32.40
2022-12-08T08:48:56.733Z,23.30
2022-12-08T08:51:24.816Z,28.90
2022-12-08T08:53:52.776Z,23.20
2022-12-08T08:56:20.848Z,24.40
2022-12-08T08:58:49.808Z,29.00
2022-12-08T09:01:21.239Z,21.70
2022-12-08T09:03:49.514Z,24.40
2022-12-08T09:06:18.741Z,23.80
2022-12-08T09:08:46.856Z,21.00
2022-12-08T09:11:15.524Z,18.20
2022-12-08T09:13:43.460Z,22.30
2022-12-08T09:16:12.694Z,18.40
2022-12-08T09:18:40.791Z,29.10
2022-12-08T09:21:16.487Z,60.80
2022-12-08T09:23:44.472Z,26.30
2022-12-08T09:26:12.410Z,28.90
2022-12-08T09:28:46.193Z,28.90
2022-12-08T09:31:14.744Z,28.30
2022-12-08T09:33:43.230Z,25.00
2022-12-08T09:36:11.646Z,31.80
2022-12-08T09:38:43.188Z,26.30
2022-12-08T09:41:52.143Z,32.70
2022-12-08T09:44:59.877Z,24.90
2022-12-08T09:47:44.070Z,23.00
2022-12-08T09:50:14.677Z,30.20
2022-12-08T09:53:01.554Z,24.30
2022-12-08T09:55:39.160Z,26.50
2022-12-08T09:58:17.640Z,25.80
2022-12-08T10:00:45.702Z,18.80
2022-12-08T10:03:16.805Z,14.30
2022-12-08T10:05:54.061Z,18.50
2022-12-08T10:08:32.349Z,19.50
2022-12-08T10:11:11.326Z,22.10
2022-12-08T10:13:54.780Z,33.80
2022-12-08T10:16:34.423Z,20.90
2022-12-08T10:19:17.929Z,19.40
2022-12-08T10:21:46.091Z,16.60
2022-12-08T10:24:23.601Z,19.00
2022-12-08T10:26:51.649Z,19.80
2022-12-08T10:29:19.571Z,39.40
2022-12-08T10:31:47.671Z,26.00
2022-12-08T10:34:24.245Z,26.40
2022-12-08T10:37:22.087Z,88.10
2022-12-08T10:39:59.267Z,22.80
2022-12-08T10:42:35.301Z,16.90
2022-12-08T10:45:09.181Z,17.30
2022-12-08T10:47:44.586Z,17.50
2022-12-08T10:50:23.567Z,22.70
2022-12-08T10:53:08.660Z,21.50
2022-12-08T10:56:08.943Z,21.30
2022-12-08T10:58:41.053Z,22.60
2022-12-08T11:01:17.331Z,17.20
2022-12-08T11:03:49.740Z,18.90
2022-12-08T11:06:34.528Z,33.00
2022-12-08T11:09:04.754Z,22.90
2022-12-08T11:11:54.400Z,18.80
2022-12-08T11:14:38.102Z,18.30
2022-12-08T11:17:09.521Z,25.00
2022-12-08T11:19:39.451Z,26.10
2022-12-08T11:22:40.136Z,18.10
2022-12-08T11:25:07.996Z,23.40
2022-12-08T11:27:38.275Z,18.50
2022-12-08T11:30:15.821Z,21.60
2022-12-08T11:32:46.580Z,17.90
2022-12-08T11:35:42.760Z,21.20
2022-12-08T11:38:32.055Z,19.50
2022-12-08T11:41:36.101Z,20.40
2022-12-08T11:44:28.166Z,22.40
2022-12-08T11:47:01.028Z,20.40
2022-12-08T11:49:41.120Z,21.20
2022-12-08T11:52:24.355Z,385.50
2022-12-08T11:55:01.381Z,60.40
2022-12-08T11:57:30.347Z,29.90
2022-12-08T11:59:58.815Z,122.30
2022-12-08T12:02:30.973Z,49.50
2022-12-08T12:05:07.421Z,27.80
2022-12-08T12:07:47.513Z,23.20
2022-12-08T12:10:36.984Z,21.10
2022-12-08T12:13:30.826Z,18.60
2022-12-08T12:15:58.786Z,18.30
2022-12-08T12:18:40.611Z,18.90
2022-12-08T12:21:19.540Z,18.20
2022-12-08T12:24:23.819Z,22.90
2022-12-08T12:27:43.874Z,25.30
2022-12-08T12:30:31.948Z,21.20
2022-12-08T12:33:02.408Z,22.00
2022-12-08T12:35:36.051Z,19.90
2022-12-08T12:38:37.486Z,16.20
2022-12-08T12:41:08.350Z,27.40
2022-12-08T12:43:38.639Z,27.50
2022-12-08T12:46:27.603Z,31.40
2022-12-08T12:49:34.386Z,24.30
2022-12-08T12:52:02.352Z,17.50
2022-12-08T12:54:30.458Z,27.10
2022-12-08T12:57:16.407Z,22.00
2022-12-08T12:59:53.411Z,22.60
2022-12-08T13:02:30.961Z,32.00
2022-12-08T13:05:01.776Z,24.20
2022-12-08T13:07:36.203Z,31.40
2022-12-08T13:10:16.388Z,21.80
2022-12-08T13:12:45.764Z,18.40
2022-12-08T13:15:20.931Z,18.70
2022-12-08T13:17:49.478Z,14.90
2022-12-08T13:20:24.417Z,16.20
2022-12-08T13:23:27.613Z,16.00
2022-12-08T13:26:15.064Z,16.70
2022-12-08T13:29:04.135Z,22.10
2022-12-08T13:31:59.859Z,61.00
2022-12-08T13:34:41.760Z,17.90
2022-12-08T13:37:13.637Z,22.10
2022-12-08T13:40:16.326Z,24.40
2022-12-08T13:42:51.154Z,31.90
2022-12-08T13:45:59.179Z,21.00
2022-12-08T13:49:03.309Z,19.10
2022-12-08T13:53:34.181Z,24.70
2022-12-08T13:57:14.281Z,22.00
2022-12-08T13:59:45.807Z,19.10
2022-12-08T14:02:47.084Z,19.10
2022-12-08T14:05:40.742Z,15.20
2022-12-08T14:08:57.913Z,21.50
2022-12-08T14:11:34.398Z,18.70
2022-12-08T14:14:53.758Z,16.30
2022-12-08T14:17:16.351Z,13.90
2022-12-08T14:19:53.308Z,17.60
2022-12-08T14:22:21.323Z,17.90
2022-12-08T14:24:53.965Z,17.00
2022-12-08T14:27:25.100Z,32.50
2022-12-08T14:29:58.731Z,19.90
2022-12-08T14:32:31.544Z,19.60
2022-12-08T14:35:08.654Z,19.40
2022-12-08T14:37:41.502Z,27.30
2022-12-08T14:40:22.697Z,33.30
2022-12-08T14:43:08.707Z,44.20
2022-12-08T14:45:42.678Z,49.40
2022-12-08T14:48:23.567Z,47.40
2022-12-08T14:51:21.091Z,77.70
2022-12-08T14:53:54.882Z,51.50
2022-12-08T14:56:26.897Z,53.90
2022-12-08T14:59:16.691Z,50.20
2022-12-08T15:01:48.183Z,41.50
2022-12-08T15:04:24.554Z,41.00
2022-12-08T15:06:59.810Z,40.90
2022-12-08T15:09:35.088Z,42.10
2022-12-08T15:12:26.363Z,48.80
2022-12-08T15:14:57.156Z,47.20
2022-12-08T15:17:40.336Z,52.50
2022-12-08T15:20:34.868Z,55.00
2022-12-08T15:23:04.364Z,59.20
2022-12-08T15:25:32.712Z,55.00
2022-12-08T15:28:02.688Z,56.40
2022-12-08T15:30:31.329Z,53.50
2022-12-08T15:32:59.406Z,56.30
2022-12-08T15:35:28.004Z,57.80
2022-12-08T15:37:55.950Z,59.50
2022-12-08T15:40:26.066Z,59.90
2022-12-08T15:42:54.316Z,64.40
2022-12-08T15:45:30.857Z,68.00
2022-12-08T15:47:58.755Z,71.50
2022-12-08T15:50:26.738Z,73.40
2022-12-08T15:52:54.667Z,66.30
2022-12-08T15:55:22.818Z,70.00
2022-12-08T16:00:57.963Z,111.90
2022-12-08T16:09:44.389Z,58.30
2022-12-08T16:13:13.856Z,46.40
2022-12-08T16:15:59.033Z,43.80
2022-12-08T16:18:25.053Z,39.10
2022-12-08T16:21:22.732Z,30.60
2022-12-08T16:24:08.897Z,35.70
2022-12-08T16:29:55.426Z,41.40
2022-12-08T16:32:24.253Z,37.80
2022-12-08T16:34:52.696Z,32.10
2022-12-08T16:37:26.229Z,33.50
2022-12-08T16:39:57.120Z,33.90
2022-12-08T16:42:52.138Z,40.00
2022-12-08T16:45:23.919Z,38.60
2022-12-08T16:48:00.000Z,31.00
2022-12-08T16:50:34.937Z,31.00
2022-12-08T16:53:09.282Z,26.10
2022-12-08T16:55:37.214Z,29.50
2022-12-08T16:58:06.113Z,24.10
2022-12-08T17:00:37.562Z,24.50
2022-12-08T17:03:10.480Z,21.80
2022-12-08T17:05:41.281Z,20.90
2022-12-08T17:08:09.761Z,21.70
2022-12-08T17:10:39.505Z,19.50
2022-12-08T17:13:07.899Z,17.80
2022-12-08T17:15:35.872Z,15.90
2022-12-08T17:18:04.017Z,18.50
2022-12-08T17:20:34.161Z,17.50
2022-12-08T17:23:02.154Z,17.70
2022-12-08T17:25:30.066Z,18.40
2022-12-08T17:27:57.957Z,19.20
2022-12-08T17:30:25.931Z,18.10
2022-12-08T17:32:54.500Z,21.50
2022-12-08T17:35:22.483Z,18.70
2022-12-08T17:37:50.485Z,19.90
2022-12-08T17:40:28.007Z,26.60
2022-12-08T17:43:21.234Z,35.90
2022-12-08T17:45:53.933Z,46.70
2022-12-08T17:48:21.976Z,41.10
2022-12-08T17:50:49.961Z,51.60
2022-12-08T17:53:17.936Z,51.40
2022-12-08T17:55:57.134Z,52.30
2022-12-08T17:58:25.972Z,46.10
2022-12-08T18:01:00.889Z,34.20
2022-12-08T18:03:28.905Z,43.80
2022-12-08T18:06:07.244Z,33.60
2022-12-08T18:08:35.829Z,31.70
2022-12-08T18:11:14.192Z,35.50
2022-12-08T18:13:48.751Z,27.00
2022-12-08T18:18:46.042Z,65.40
2022-12-08T18:21:16.365Z,69.90
2022-12-08T18:23:49.625Z,68.70
2022-12-08T18:26:17.712Z,72.60
2022-12-08T18:28:45.635Z,61.90
2022-12-08T18:31:17.696Z,62.20
2022-12-08T18:33:46.981Z,53.50
2022-12-08T18:36:23.809Z,57.20
2022-12-08T18:38:53.230Z,41.00
2022-12-08T18:41:28.471Z,55.70
2022-12-08T18:44:04.066Z,65.00
2022-12-08T18:46:32.169Z,62.40
2022-12-08T18:49:00.247Z,63.80
2022-12-08T18:51:28.335Z,76.20
2022-12-08T18:53:58.501Z,67.10
2022-12-08T18:56:34.498Z,64.20
2022-12-08T18:59:14.620Z,58.70
2022-12-08T19:01:42.743Z,46.10
2022-12-08T19:06:58.827Z,57.20
2022-12-08T19:09:30.196Z,48.10
2022-12-08T19:11:58.427Z,55.30
2022-12-08T19:14:28.407Z,48.30
2022-12-08T19:16:57.846Z,47.10
2022-12-08T19:19:36.901Z,40.90
2022-12-08T19:22:04.911Z,47.90
2022-12-08T19:24:35.051Z,42.50
2022-12-08T19:27:04.311Z,50.10
2022-12-08T19:29:32.352Z,47.60
2022-12-08T19:32:00.476Z,41.60
2022-12-08T19:34:28.457Z,47.10
2022-12-08T19:37:01.949Z,49.00
2022-12-08T19:40:02.152Z,51.90
2022-12-08T19:42:48.612Z,45.90
2022-12-08T19:45:21.793Z,46.90
2022-12-08T19:47:49.887Z,46.60
2022-12-08T19:50:36.178Z,50.40
2022-12-08T19:53:07.791Z,52.70
2022-12-08T19:56:03.199Z,64.90
2022-12-08T19:58:31.199Z,71.30
2022-12-08T20:00:59.209Z,73.70
2022-12-08T20:03:27.307Z,58.00
2022-12-08T20:05:55.438Z,64.80
2022-12-08T20:08:23.506Z,57.60
2022-12-08T20:10:51.724Z,42.50
2022-12-08T20:13:38.363Z,52.80
2022-12-08T20:16:06.850Z,57.20
2022-12-08T20:18:36.729Z,66.10
2022-12-08T20:21:08.511Z,61.40
2022-12-08T20:23:36.718Z,57.40
2022-12-08T20:26:08.513Z,55.00
2022-12-08T20:28:39.268Z,47.00
2022-12-08T20:31:07.437Z,44.40
2022-12-08T20:33:35.522Z,41.60
2022-12-08T20:36:05.817Z,40.20
2022-12-08T20:38:33.754Z,43.30
2022-12-08T20:41:01.791Z,47.30
2022-12-08T20:43:29.829Z,42.80
2022-12-08T20:45:58.385Z,42.70
2022-12-08T20:48:26.434Z,40.60
2022-12-08T20:50:55.086Z,43.90
2022-12-08T20:53:23.126Z,44.80
2022-12-08T20:55:51.193Z,48.70
2022-12-08T20:58:40.918Z,49.90
2022-12-08T21:01:11.358Z,50.20
2022-12-08T21:03:39.749Z,49.40
2022-12-08T21:06:08.916Z,49.70
2022-12-08T21:08:37.872Z,47.50
2022-12-08T21:11:06.645Z,43.60
2022-12-08T21:13:43.481Z,42.50
2022-12-08T21:16:17.184Z,43.60
2022-12-08T21:18:45.254Z,46.60
2022-12-08T21:21:15.201Z,44.40
2022-12-08T21:23:43.880Z,55.80
2022-12-08T21:26:15.362Z,80.60
2022-12-08T21:28:48.260Z,103.60
2022-12-08T21:31:19.067Z,99.10
2022-12-08T21:33:48.232Z,83.70
2022-12-08T21:36:18.819Z,62.10
2022-12-08T21:38:47.697Z,57.60
2022-12-08T21:41:41.996Z,55.40
2022-12-08T21:44:12.581Z,54.80
2022-12-08T21:46:41.644Z,61.10
2022-12-08T21:49:09.888Z,55.80
2022-12-08T21:51:42.287Z,58.10
2022-12-08T21:54:18.796Z,57.40
2022-12-08T21:56:48.819Z,75.10
2022-12-08T21:59:18.482Z,100.60
2022-12-08T22:01:46.934Z,123.80
2022-12-08T22:04:21.211Z,109.00
2022-12-08T22:06:49.732Z,121.60
2022-12-08T22:09:17.921Z,139.40
2022-12-08T22:11:46.068Z,127.40
2022-12-08T22:14:15.236Z,127.20
2022-12-08T22:16:44.399Z,120.10
2022-12-08T22:19:12.795Z,104.20
2022-12-08T22:21:41.545Z,108.30
2022-12-08T22:24:09.810Z,139.00
2022-12-08T22:26:37.864Z,136.80
2022-12-08T22:29:05.980Z,143.80
2022-12-08T22:31:34.124Z,104.80
2022-12-08T22:34:02.154Z,100.10
2022-12-08T22:36:30.173Z,79.80
2022-12-08T22:38:58.374Z,72.50
2022-12-08T22:41:26.405Z,118.50
2022-12-08T22:43:54.581Z,105.10
2022-12-08T22:46:24.989Z,105.10
2022-12-08T22:48:54.280Z,82.70
2022-12-08T22:51:22.456Z,84.10
2022-12-08T22:53:51.340Z,89.80
2022-12-08T22:56:20.158Z,100.20
2022-12-08T22:58:48.355Z,96.40
2022-12-08T23:01:23.109Z,78.90
2022-12-08T23:03:51.338Z,76.80
2022-12-08T23:06:19.994Z,70.50
2022-12-08T23:08:48.610Z,71.30
2022-12-08T23:11:17.271Z,70.90
2022-12-08T23:13:45.378Z,63.90
2022-12-08T23:16:13.385Z,67.20
2022-12-08T23:18:43.581Z,63.90
2022-12-08T23:21:15.538Z,61.30
2022-12-08T23:23:43.911Z,60.50
2022-12-08T23:26:24.805Z,58.50
2022-12-08T23:28:53.371Z,52.80
2022-12-08T23:31:25.470Z,52.60
2022-12-08T23:33:54.391Z,58.00
2022-12-08T23:36:26.255Z,55.50
2022-12-08T23:38:54.867Z,58.80
2022-12-08T23:41:23.044Z,56.30
2022-12-08T23:43:52.081Z,54.90
2022-12-08T23:46:22.071Z,58.80
2022-12-08T23:48:51.583Z,55.80
2022-12-08T23:51:20.064Z,53.70
2022-12-08T23:53:48.138Z,56.30
2022-12-08T23:56:17.975Z,59.30
2022-12-08T23:58:46.696Z,58.20
